Time;durP1;ratioP1;P1;durP2;ratioP2;P2;SDS_P1;SDS_P2;PMS_P1;PMS_P2;Temp;Humidity;BMP_temperature;BMP_pressure;BME280_temperature;BME280_humidity;BME280_pressure;Samples;Min_cycle;Max_cycle;Signal;HPM_P1;HPM_P2
2021/08/28 00:01:11;;;;;;;3.00;2.43;;;;;;;11.86;100.00;100546.78;5063760;28;20213;-74
2021/08/28 00:03:39;;;;;;;2.80;2.60;;;;;;;11.85;100.00;100547.66;5063963;28;20224;-74
2021/08/28 00:06:05;;;;;;;5.37;3.00;;;;;;;11.85;100.00;100552.88;5068439;28;20225;-74
2021/08/28 00:08:31;;;;;;;4.33;2.87;;;;;;;11.88;100.00;100549.34;5067886;28;20222;-74
2021/08/28 00:10:58;;;;;;;4.50;2.63;;;;;;;11.85;100.00;100542.44;5061950;28;20587;-74
2021/08/28 00:13:24;;;;;;;6.10;2.87;;;;;;;11.87;100.00;100551.09;5060411;28;20561;-74
2021/08/28 00:15:51;;;;;;;4.40;3.17;;;;;;;11.88;100.00;100544.13;5064556;28;20196;-74
2021/08/28 00:18:17;;;;;;;4.23;2.70;;;;;;;11.89;100.00;100544.06;5063702;28;20887;-74
2021/08/28 00:20:46;;;;;;;3.57;3.07;;;;;;;11.91;100.00;100546.66;5058255;28;20200;-74
2021/08/28 00:23:12;;;;;;;4.93;3.03;;;;;;;11.92;100.00;100546.63;5064052;28;20197;-74
2021/08/28 00:25:38;;;;;;;4.47;2.83;;;;;;;11.95;100.00;100543.03;5064314;28;20307;-74
2021/08/28 00:28:05;;;;;;;3.43;2.70;;;;;;;11.93;100.00;100539.63;5061675;28;20225;-74
2021/08/28 00:30:32;;;;;;;3.30;2.80;;;;;;;11.95;100.00;100542.19;5064145;28;20211;-74
2021/08/28 00:33:09;;;;;;;3.73;2.97;;;;;;;11.91;100.00;100546.66;5061626;28;20214;-74
2021/08/28 00:35:35;;;;;;;3.87;2.97;;;;;;;11.90;100.00;100550.13;5063118;28;20221;-74
2021/08/28 00:38:03;;;;;;;5.20;3.13;;;;;;;11.90;100.00;100534.47;5065938;28;20223;-74
2021/08/28 00:40:30;;;;;;;6.03;3.37;;;;;;;11.92;100.00;100540.50;5063432;28;20209;-74
2021/08/28 00:42:57;;;;;;;5.33;2.90;;;;;;;11.90;100.00;100537.94;5060252;28;20205;-74
2021/08/28 00:45:24;;;;;;;3.90;2.77;;;;;;;11.91;100.00;100547.50;5065991;28;20221;-74
2021/08/28 00:47:54;;;;;;;3.57;3.00;;;;;;;11.90;100.00;100545.78;5062623;28;21054;-74
2021/08/28 00:50:21;;;;;;;8.40;3.10;;;;;;;11.89;100.00;100531.00;5059595;28;20300;-74
2021/08/28 00:52:48;;;;;;;6.60;3.33;;;;;;;11.99;100.00;100542.03;5063228;28;20208;-74
2021/08/28 00:55:16;;;;;;;4.80;2.80;;;;;;;11.96;100.00;100538.66;5065468;28;20295;-74
2021/08/28 00:57:42;;;;;;;4.27;2.80;;;;;;;11.93;100.00;100544.84;5059169;28;20770;-74
2021/08/28 01:00:09;;;;;;;3.87;3.17;;;;;;;11.95;100.00;100534.34;5062502;28;20208;-74
2021/08/28 01:02:38;;;;;;;3.30;2.60;;;;;;;11.94;100.00;100549.16;5062606;28;20212;-74
2021/08/28 01:05:12;;;;;;;3.43;2.83;;;;;;;11.94;100.00;100549.16;5066303;28;20950;-74
2021/08/28 01:07:55;;;;;;;5.63;3.00;;;;;;;11.91;100.00;100551.91;5062064;28;20244;-74
2021/08/28 01:11:05;;;;;;;4.80;2.93;;;;;;;11.92;100.00;100551.84;5044113;28;20588;-74
2021/08/28 01:13:41;;;;;;;4.13;3.00;;;;;;;11.98;100.00;100555.13;5055507;28;20267;-74
2021/08/28 01:16:10;;;;;;;4.13;3.27;;;;;;;11.95;100.00;100548.25;5065355;28;20252;-75
2021/08/28 01:18:40;;;;;;;6.30;3.30;;;;;;;11.91;100.00;100549.28;5063901;28;20238;-75
2021/08/28 01:21:17;;;;;;;3.37;2.57;;;;;;;11.89;100.00;100544.06;5065412;28;20234;-75
2021/08/28 01:24:09;;;;;;;3.17;2.80;;;;;;;11.90;100.00;100544.91;5062215;28;20611;-75
2021/08/28 01:27:01;;;;;;;3.80;2.87;;;;;;;11.94;100.00;100549.16;5069169;28;20708;-75
2021/08/28 01:29:32;;;;;;;3.47;2.80;;;;;;;11.92;100.00;100544.00;5065386;28;20239;-75
2021/08/28 01:32:00;;;;;;;3.53;2.50;;;;;;;11.90;100.00;100551.00;5060178;28;20217;-75
2021/08/28 01:34:29;;;;;;;4.03;2.73;;;;;;;11.90;100.00;100551.00;5061938;28;20242;-75
2021/08/28 01:36:57;;;;;;;4.27;3.20;;;;;;;11.89;100.00;100553.63;5059216;28;20266;-75
2021/08/28 01:40:06;;;;;;;5.07;2.93;;;;;;;11.91;100.00;100557.13;5057732;28;20205;-75
2021/08/28 01:42:41;;;;;;;4.07;2.83;;;;;;;11.95;100.00;100556.09;5057403;28;20625;-75
2021/08/28 01:45:15;;;;;;;4.67;2.97;;;;;;;11.93;100.00;100553.53;5059692;28;20199;-75
2021/08/28 01:47:46;;;;;;;4.80;3.03;;;;;;;11.92;100.00;100550.97;5064893;28;20324;-75
2021/08/28 01:50:17;;;;;;;4.43;3.13;;;;;;;11.95;100.00;100555.25;5065726;28;20223;-75
2021/08/28 01:52:43;;;;;;;4.70;3.20;;;;;;;11.87;100.00;100548.50;5067925;28;20224;-75
2021/08/28 01:55:11;;;;;;;4.70;3.23;;;;;;;11.89;100.00;100549.28;5063302;28;20621;-75
2021/08/28 01:57:49;;;;;;;4.97;3.30;;;;;;;11.90;100.00;100553.63;5066684;28;20257;-75
2021/08/28 02:00:49;;;;;;;4.07;3.10;;;;;;;11.85;100.00;100547.66;5066323;28;20559;-75
2021/08/28 02:03:34;;;;;;;3.70;3.30;;;;;;;11.85;100.00;100557.28;5069343;28;20334;-75
2021/08/28 02:06:04;;;;;;;3.90;3.03;;;;;;;11.86;100.00;100549.38;5066832;28;20237;-75
2021/08/28 02:08:43;;;;;;;3.80;3.10;;;;;;;11.85;100.00;100554.66;5060623;28;20229;-75
2021/08/28 02:11:15;;;;;;;3.87;3.47;;;;;;;11.89;100.00;100562.34;5063687;28;20773;-75
2021/08/28 02:13:49;;;;;;;3.93;3.53;;;;;;;11.86;100.00;100556.38;5065756;28;20206;-75
2021/08/28 02:16:22;;;;;;;3.40;2.97;;;;;;;11.86;100.00;100557.22;5056062;28;20260;-75
2021/08/28 02:18:53;;;;;;;4.73;3.47;;;;;;;11.83;100.00;100559.94;5064062;28;20287;-75
2021/08/28 02:21:52;;;;;;;3.77;3.17;;;;;;;11.83;100.00;100551.25;5066651;28;20224;-75
2021/08/28 02:24:27;;;;;;;5.80;3.47;;;;;;;11.81;100.00;100547.84;5069084;28;20791;-75
2021/08/28 02:26:56;;;;;;;4.33;3.60;;;;;;;11.83;100.00;100546.88;5064958;28;20297;-75
2021/08/28 02:29:32;;;;;;;5.47;3.73;;;;;;;11.83;100.00;100549.47;5058995;28;20294;-75
2021/08/28 02:32:01;;;;;;;4.47;3.27;;;;;;;11.81;100.00;100547.84;5059112;28;20208;-75
2021/08/28 02:34:36;;;;;;;3.60;3.20;;;;;;;11.82;100.00;100547.78;5062900;28;20209;-75
2021/08/28 02:37:05;;;;;;;5.63;3.73;;;;;;;11.79;100.00;100545.25;5065372;28;20297;-75
2021/08/28 02:39:34;;;;;;;3.87;2.97;;;;;;;11.78;100.00;100548.78;5063373;28;20221;-75
2021/08/28 02:42:02;;;;;;;4.33;3.37;;;;;;;11.78;100.00;100551.38;5064641;28;20208;-75
2021/08/28 02:44:29;;;;;;;3.93;3.50;;;;;;;11.78;100.00;100553.16;5063222;28;20231;-75
2021/08/28 02:46:58;;;;;;;5.17;3.33;;;;;;;11.73;100.00;100548.06;5066343;28;20223;-75
2021/08/28 02:49:27;;;;;;;5.57;3.80;;;;;;;11.73;100.00;100553.28;5064430;28;20213;-75
2021/08/28 02:51:55;;;;;;;3.93;3.20;;;;;;;11.73;100.00;100559.38;5058338;28;20207;-75
2021/08/28 02:54:28;;;;;;;5.47;3.37;;;;;;;11.72;100.00;100562.88;5067715;28;20566;-75
2021/08/28 02:56:56;;;;;;;3.40;3.10;;;;;;;11.75;100.00;100556.72;5066690;28;20202;-75
2021/08/28 02:59:24;;;;;;;6.10;3.37;;;;;;;11.77;100.00;100560.13;5061869;28;20205;-75
2021/08/28 03:01:51;;;;;;;5.23;3.63;;;;;;;11.75;100.00;100551.50;5059440;28;20224;-75
2021/08/28 03:04:21;;;;;;;4.33;3.47;;;;;;;11.70;100.00;100562.09;5061560;28;20219;-75
2021/08/28 03:06:50;;;;;;;5.00;3.90;;;;;;;11.73;100.00;100563.72;5063167;28;20235;-75
2021/08/28 03:09:18;;;;;;;4.60;3.90;;;;;;;11.71;100.00;100565.53;5059964;28;20212;-75
2021/08/28 03:11:46;;;;;;;4.20;3.30;;;;;;;11.68;100.00;100563.03;5066262;28;20212;-75
2021/08/28 03:14:13;;;;;;;4.80;3.70;;;;;;;11.69;100.00;100564.75;5076170;28;20728;-75
2021/08/28 03:16:44;;;;;;;5.40;3.80;;;;;;;11.68;100.00;100565.63;5061294;28;20199;-76
2021/08/28 03:19:27;;;;;;;4.50;3.87;;;;;;;11.65;100.00;100565.75;5065275;28;20205;-75
2021/08/28 03:21:56;;;;;;;4.53;3.83;;;;;;;11.67;100.00;100566.56;5064389;28;20211;-75
2021/08/28 03:24:26;;;;;;;5.03;3.77;;;;;;;11.67;100.00;100566.56;5065306;28;20210;-75
2021/08/28 03:27:05;;;;;;;6.20;3.90;;;;;;;11.68;100.00;100566.50;5054759;28;20568;-75
2021/08/28 03:29:34;;;;;;;8.13;4.10;;;;;;;11.71;100.00;100570.75;5066193;28;20198;-75
2021/08/28 03:32:03;;;;;;;6.80;4.47;;;;;;;11.74;100.00;100570.69;5061825;28;20228;-75
2021/08/28 03:34:30;;;;;;;5.57;4.17;;;;;;;11.75;100.00;100575.00;5063159;28;20208;-75
2021/08/28 03:36:59;;;;;;;5.73;4.63;;;;;;;11.79;100.00;100558.31;5063957;28;20297;-76
2021/08/28 03:39:25;;;;;;;5.17;4.40;;;;;;;11.78;100.00;100561.84;5064481;28;20197;-75
2021/08/28 03:41:53;;;;;;;7.07;5.13;;;;;;;11.74;100.00;100565.47;5065728;28;20308;-75
2021/08/28 03:44:20;;;;;;;6.23;5.23;;;;;;;11.71;100.00;100568.16;5061848;28;20213;-75
2021/08/28 03:46:47;;;;;;;6.57;5.13;;;;;;;11.73;100.00;100562.00;5064919;28;20227;-75
2021/08/28 03:49:15;;;;;;;8.50;5.07;;;;;;;11.78;100.00;100566.22;5058401;28;20705;-75
2021/08/28 03:51:42;;;;;;;5.87;5.23;;;;;;;11.75;100.00;100562.78;5060725;28;20207;-75
2021/08/28 03:54:10;;;;;;;7.53;5.60;;;;;;;11.75;100.00;100564.56;5056500;28;20223;-75
2021/08/28 03:56:37;;;;;;;9.13;6.23;;;;;;;11.80;100.00;100567.84;5071148;28;20291;-75
2021/08/28 03:59:04;;;;;;;7.87;5.90;;;;;;;11.80;100.00;100567.00;5062656;28;20204;-75
2021/08/28 04:01:31;;;;;;;9.70;5.70;;;;;;;11.83;100.00;100567.75;5057492;28;20755;-75
2021/08/28 04:04:01;;;;;;;9.80;6.33;;;;;;;11.81;100.00;100566.13;5061435;28;20506;-75
2021/08/28 04:06:27;;;;;;;7.00;5.70;;;;;;;11.85;100.00;100571.19;5064590;28;20308;-75
2021/08/28 04:08:54;;;;;;;10.37;5.97;;;;;;;11.88;100.00;100575.47;5066437;28;20276;-75
2021/08/28 04:11:22;;;;;;;7.37;5.60;;;;;;;11.86;100.00;100567.66;5066705;28;20213;-75
2021/08/28 04:13:48;;;;;;;8.37;6.50;;;;;;;11.83;100.00;100569.53;5060986;28;20200;-75
2021/08/28 04:16:15;;;;;;;9.70;6.00;;;;;;;11.86;100.00;100575.50;5069908;28;20216;-75
2021/08/28 04:18:50;;;;;;;10.37;6.20;;;;;;;11.85;100.00;100573.78;5062479;28;20223;-75
2021/08/28 04:21:40;;;;;;;7.77;6.10;;;;;;;11.87;100.00;100578.97;5061678;28;20210;-75
2021/08/28 04:24:11;;;;;;;10.20;6.10;;;;;;;11.91;100.00;100580.63;5065612;28;20228;-75
2021/08/28 04:27:11;;;;;;;8.77;6.63;;;;;;;11.92;100.00;100577.09;5064213;28;20289;-75
2021/08/28 04:29:37;;;;;;;10.70;7.07;;;;;;;11.92;100.00;100577.09;5068218;28;20210;-75
2021/08/28 04:32:04;;;;;;;9.13;6.73;;;;;;;11.92;100.00;100579.72;5062849;28;20286;-75
2021/08/28 04:34:32;;;;;;;9.87;6.93;;;;;;;11.92;100.00;100580.59;5060221;28;20217;-75
2021/08/28 04:36:58;;;;;;;10.93;7.40;;;;;;;11.93;100.00;100587.50;5059095;28;20221;-76
2021/08/28 04:39:25;;;;;;;9.07;6.50;;;;;;;11.94;100.00;100583.13;5059731;28;20201;-75
2021/08/28 04:41:56;;;;;;;8.70;6.60;;;;;;;11.97;100.00;100582.19;5073480;28;20214;-75
2021/08/28 04:44:23;;;;;;;9.33;6.83;;;;;;;11.99;100.00;100575.16;5061489;28;20236;-75
2021/08/28 04:46:50;;;;;;;10.67;7.07;;;;;;;12.00;100.00;100577.72;5060355;28;20699;-75
2021/08/28 04:49:18;;;;;;;9.03;7.17;;;;;;;12.02;100.00;100575.91;5062578;28;20302;-75
2021/08/28 04:51:58;;;;;;;10.40;6.67;;;;;;;11.99;100.00;100581.22;5064055;28;20207;-75
2021/08/28 04:54:26;;;;;;;10.20;7.30;;;;;;;12.06;100.00;100582.72;5059070;28;20207;-75
2021/08/28 04:56:55;;;;;;;9.47;7.37;;;;;;;12.08;100.00;100580.94;5061878;28;20205;-75
2021/08/28 04:59:23;;;;;;;9.93;8.00;;;;;;;12.09;100.00;100581.78;5054508;28;20574;-75
2021/08/28 05:02:22;;;;;;;11.10;7.93;;;;;;;12.06;100.00;100581.88;5054204;28;20215;-75
2021/08/28 05:04:56;;;;;;;11.20;8.07;;;;;;;12.08;100.00;100582.66;5061354;28;20298;-75
2021/08/28 05:07:24;;;;;;;10.43;7.73;;;;;;;12.10;100.00;100589.56;5058390;28;20235;-75
2021/08/28 05:09:56;;;;;;;10.97;8.23;;;;;;;12.14;100.00;100585.09;5064608;28;20698;-75
2021/08/28 05:12:22;;;;;;;12.40;8.47;;;;;;;12.13;100.00;100591.22;5052553;28;20204;-75
2021/08/28 05:15:17;;;;;;;14.27;9.30;;;;;;;12.14;100.00;100592.94;5056643;28;20588;-75
2021/08/28 05:17:56;;;;;;;15.63;9.30;;;;;;;12.15;100.00;100599.00;5057532;28;20298;-75
2021/08/28 05:20:24;;;;;;;14.70;9.13;;;;;;;12.16;100.00;100596.34;5062209;28;20208;-75
2021/08/28 05:23:26;;;;;;;15.23;9.13;;;;;;;12.17;100.00;100599.81;5061918;28;20213;-75
2021/08/28 05:25:55;;;;;;;14.47;10.00;;;;;;;12.15;100.00;100599.00;5055070;28;20300;-75
2021/08/28 05:28:22;;;;;;;18.37;10.43;;;;;;;12.19;100.00;100606.72;5064404;28;20228;-75
2021/08/28 05:30:50;;;;;;;14.70;9.80;;;;;;;12.25;100.00;100606.50;5063456;28;20208;-75
2021/08/28 05:33:19;;;;;;;13.87;9.77;;;;;;;12.27;100.00;100609.06;5063385;28;20217;-75
2021/08/28 05:35:45;;;;;;;14.40;9.83;;;;;;;12.34;100.00;100609.72;5059838;28;20561;-75
2021/08/28 05:38:22;;;;;;;13.97;9.50;;;;;;;12.41;100.00;100612.06;5062258;28;20222;-75
2021/08/28 05:40:50;;;;;;;12.87;9.73;;;;;;;12.42;100.00;100615.56;5063254;28;20239;-76
2021/08/28 05:43:17;;;;;;;15.47;10.13;;;;;;;12.40;100.00;100617.34;5057594;28;20206;-75
2021/08/28 05:46:04;;;;;;;13.00;9.83;;;;;;;12.44;100.00;100621.56;5058783;28;20210;-75
2021/08/28 05:48:39;;;;;;;14.43;10.00;;;;;;;12.48;100.00;100618.78;5058300;28;20226;-75
2021/08/28 05:51:16;;;;;;;15.37;10.03;;;;;;;12.52;100.00;100614.31;5063141;28;20213;-75
2021/08/28 05:53:42;;;;;;;13.77;10.53;;;;;;;12.56;100.00;100618.53;5061656;28;20684;-75
2021/08/28 05:56:09;;;;;;;15.43;10.90;;;;;;;12.52;100.00;100616.06;5059825;28;20241;-75
2021/08/28 05:58:36;;;;;;;14.33;9.97;;;;;;;12.50;100.00;100618.75;5061113;28;20226;-75
2021/08/28 06:01:04;;;;;;;14.10;10.50;;;;;;;12.56;100.00;100620.28;5062739;28;20290;-75
2021/08/28 06:03:30;;;;;;;20.67;11.33;;;;;;;12.62;100.00;100620.09;5056299;28;20371;-75
2021/08/28 06:06:04;;;;;;;17.33;12.37;;;;;;;12.60;100.00;100621.91;5064212;28;20199;-75
2021/08/28 06:08:49;;;;;;;16.63;11.97;;;;;;;12.55;100.00;100619.44;5062090;28;20226;-75
2021/08/28 06:11:34;;;;;;;16.87;11.77;;;;;;;12.57;100.00;100616.78;5057103;28;20211;-75
2021/08/28 06:14:20;;;;;;;17.47;12.37;;;;;;;12.60;100.00;100621.91;5063612;28;20209;-75
2021/08/28 06:16:52;;;;;;;16.40;12.50;;;;;;;12.68;100.00;100618.13;5058517;28;20240;-75
2021/08/28 06:19:23;;;;;;;17.10;11.53;;;;;;;12.75;100.00;100610.03;5062770;28;20270;-75
2021/08/28 06:21:51;;;;;;;16.90;11.97;;;;;;;12.85;100.00;100611.41;5060860;28;20205;-75
2021/08/28 06:24:20;;;;;;;16.97;12.87;;;;;;;12.85;100.00;100614.03;5059582;28;20315;-75
2021/08/28 06:27:02;;;;;;;15.90;11.93;;;;;;;12.91;100.00;100618.19;5066862;28;20300;-75
2021/08/28 06:29:28;;;;;;;19.17;11.90;;;;;;;12.91;100.00;100607.72;5054517;28;20577;-75
2021/08/28 06:31:57;;;;;;;16.03;12.37;;;;;;;12.96;100.00;100613.66;5058865;28;20206;-75
2021/08/28 06:34:24;;;;;;;16.87;12.57;;;;;;;12.97;100.00;100613.59;5065569;28;20260;-75
2021/08/28 06:36:51;;;;;;;17.27;12.03;;;;;;;12.93;100.00;100619.00;5066604;28;20218;-75
2021/08/28 06:39:37;;;;;;;19.37;13.40;;;;;;;12.96;100.00;100627.56;5056872;28;20221;-75
2021/08/28 06:42:27;;;;;;;16.67;12.23;;;;;;;13.02;100.00;100632.59;5068222;28;20315;-75
2021/08/28 06:45:19;;;;;;;19.03;14.17;;;;;;;12.99;100.00;100626.63;5051736;28;20211;-75
2021/08/28 06:48:25;;;;;;;17.47;12.83;;;;;;;13.01;100.00;100627.44;5065320;28;20236;-75
2021/08/28 06:51:11;;;;;;;18.30;13.10;;;;;;;12.96;100.00;100629.34;5063642;28;20687;-75
2021/08/28 06:53:56;;;;;;;20.87;13.53;;;;;;;13.05;100.00;100627.28;5066199;28;20769;-75
2021/08/28 06:56:41;;;;;;;20.43;13.53;;;;;;;13.04;100.00;100629.94;5063129;28;20319;-75
2021/08/28 06:59:39;;;;;;;36.00;24.57;;;;;;;13.05;100.00;100631.63;5066502;28;20768;-75
2021/08/28 07:02:25;;;;;;;20.33;13.73;;;;;;;13.12;100.00;100627.03;5069491;28;20214;-75
2021/08/28 07:05:02;;;;;;;17.77;13.27;;;;;;;13.19;100.00;100629.38;5067161;28;20278;-75
2021/08/28 07:07:43;;;;;;;20.67;14.50;;;;;;;13.17;100.00;100632.94;5060516;28;20218;-75
2021/08/28 07:10:11;;;;;;;20.37;14.93;;;;;;;13.20;100.00;100638.94;5067769;28;20204;-75
2021/08/28 07:12:38;;;;;;;22.47;15.97;;;;;;;13.18;100.00;100634.66;5059676;28;20203;-75
2021/08/28 07:15:08;;;;;;;22.50;16.60;;;;;;;13.16;100.00;100633.88;5063920;28;20289;-75
2021/08/28 07:17:49;;;;;;;27.80;16.93;;;;;;;13.15;100.00;100633.00;5076410;28;20230;-75
2021/08/28 07:20:17;;;;;;;25.13;16.73;;;;;;;13.27;100.00;100632.56;5071458;28;20724;-75
2021/08/28 07:22:43;;;;;;;24.50;17.77;;;;;;;13.32;100.00;100632.44;5061523;28;20587;-75
2021/08/28 07:25:30;;;;;;;40.13;21.87;;;;;;;13.30;100.00;100628.97;5063377;28;20202;-75
2021/08/28 07:27:56;;;;;;;33.07;20.43;;;;;;;13.31;100.00;100629.81;5063983;28;20218;-75
2021/08/28 07:30:49;;;;;;;27.30;18.83;;;;;;;13.35;100.00;100647.16;5063983;28;20213;-75
2021/08/28 07:33:16;;;;;;;27.23;18.83;;;;;;;13.42;100.00;100639.03;5063668;28;20208;-75
2021/08/28 07:35:44;;;;;;;27.17;19.37;;;;;;;13.48;100.00;100643.19;5064412;28;20199;-75
2021/08/28 07:38:10;;;;;;;29.73;19.47;;;;;;;13.55;100.00;100646.41;5065656;28;20230;-75
2021/08/28 07:40:36;;;;;;;26.47;18.97;;;;;;;13.61;100.00;100640.94;5070987;28;20218;-75
2021/08/28 07:43:03;;;;;;;31.50;20.60;;;;;;;13.70;100.00;100652.81;5057105;28;20570;-75
2021/08/28 07:45:35;;;;;;;26.37;18.60;;;;;;;13.71;100.00;100644.06;5061038;28;20247;-75
2021/08/28 07:48:06;;;;;;;32.57;20.87;;;;;;;13.83;100.00;100647.06;5062921;28;20218;-75
2021/08/28 07:50:33;;;;;;;27.03;18.17;;;;;;;13.96;100.00;100643.94;5057034;28;20213;-75
2021/08/28 07:53:03;;;;;;;27.53;18.90;;;;;;;14.05;100.00;100646.19;5060562;28;20381;-75
2021/08/28 07:55:32;;;;;;;23.73;17.90;;;;;;;14.05;100.00;100653.22;5064733;28;20701;-75
2021/08/28 07:57:59;;;;;;;22.10;17.23;;;;;;;14.19;100.00;100654.38;5059752;28;20223;-75
2021/08/28 08:00:25;;;;;;;22.67;16.77;;;;;;;14.21;100.00;100654.28;5063080;28;20578;-75
2021/08/28 08:02:52;;;;;;;31.13;22.20;;;;;;;14.34;100.00;100654.66;5061986;28;20214;-75
2021/08/28 08:05:44;;;;;;;19.27;14.77;;;;;;;14.37;100.00;100657.13;5062282;28;20296;-75
2021/08/28 08:08:31;;;;;;;18.43;13.73;;;;;;;14.42;100.00;100660.41;5061266;28;20229;-75
2021/08/28 08:11:17;;;;;;;17.07;13.43;;;;;;;14.53;100.00;100662.63;5057215;28;20208;-75
2021/08/28 08:14:03;;;;;;;17.30;13.80;;;;;;;14.49;100.00;100669.78;5063250;28;20245;-75
2021/08/28 08:17:05;;;;;;;19.33;14.20;;;;;;;14.60;100.00;100669.34;5062790;28;20398;-75
2021/08/28 08:19:50;;;;;;;22.57;15.57;;;;;;;14.67;100.00;100670.78;5056416;28;20707;-75
2021/08/28 08:22:40;;;;;;;19.53;14.13;;;;;;;14.81;100.00;100667.56;5065426;28;20602;-75
2021/08/28 08:25:21;;;;;;;18.13;14.00;;;;;;;14.79;100.00;100666.75;5060950;28;20201;-75
2021/08/28 08:28:07;;;;;;;16.83;13.27;;;;;;;14.80;100.00;100667.63;5063805;28;20218;-75
2021/08/28 08:30:54;;;;;;;16.37;13.37;;;;;;;14.79;100.00;100672.00;5061047;28;20206;-75
2021/08/28 08:33:23;;;;;;;15.43;13.03;;;;;;;14.75;100.00;100670.44;5054891;28;20259;-75
2021/08/28 08:35:54;;;;;;;15.60;12.90;;;;;;;14.72;100.00;100674.06;5061747;28;20572;-75
2021/08/28 08:38:20;;;;;;;18.63;13.97;;;;;;;14.75;100.00;100673.06;5059239;28;20235;-75
2021/08/28 08:40:49;;;;;;;14.67;12.37;;;;;;;14.88;100.00;100670.75;5058790;28;20619;-74
2021/08/28 08:43:16;;;;;;;15.43;12.23;;;;;;;14.94;100.00;100675.75;5061224;28;20606;-74
2021/08/28 08:45:43;;;;;;;15.53;11.93;;;;;;;15.02;100.00;100670.16;5059998;28;20293;-74
2021/08/28 08:48:10;;;;;;;13.33;11.90;;;;;;;15.08;100.00;100676.00;5055891;28;20590;-74
2021/08/28 08:50:37;;;;;;;13.60;11.37;;;;;;;15.18;100.00;100671.22;5052880;28;20225;-74
2021/08/28 08:53:06;;;;;;;13.37;11.80;;;;;;;15.30;100.00;100664.53;5079389;28;20667;-74
2021/08/28 08:55:38;;;;;;;14.40;11.53;;;;;;;15.26;100.00;100666.44;5062087;28;20215;-75
2021/08/28 08:58:07;;;;;;;13.33;11.23;;;;;;;15.20;100.00;100673.78;5061035;28;20237;-75
2021/08/28 09:00:35;;;;;;;14.60;10.57;;;;;;;15.21;100.00;100671.06;5056013;28;20191;-74
2021/08/28 09:03:20;;;;;;;15.33;11.30;;;;;;;15.28;100.00;100679.53;5062399;28;20592;-75
2021/08/28 09:05:53;;;;;;;12.83;10.90;;;;;;;15.33;100.00;100677.53;5059208;28;20203;-75
2021/08/28 09:08:20;;;;;;;14.13;10.17;;;;;;;15.35;100.00;100688.81;5055008;28;20250;-75
2021/08/28 09:10:46;;;;;;;26.57;14.60;;;;;;;15.38;100.00;100693.94;5053867;28;20198;-74
2021/08/28 09:13:16;;;;;;;27.07;15.67;;;;;;;15.45;100.00;100698.00;5061481;28;20281;-74
2021/08/28 09:15:45;;;;;;;58.93;29.57;;;;;;;15.28;100.00;100697.91;5058273;28;20253;-74
2021/08/28 09:18:12;;;;;;;14.40;11.13;;;;;;;15.49;100.00;100702.19;5053715;28;20225;-74
2021/08/28 09:20:39;;;;;;;11.10;8.70;;;;;;;15.63;100.00;100700.72;5055637;28;20664;-74
2021/08/28 09:23:07;;;;;;;12.37;8.70;;;;;;;15.69;100.00;100696.03;5060350;28;20202;-74
2021/08/28 09:25:34;;;;;;;10.90;9.07;;;;;;;15.67;100.00;100699.63;5056588;28;20317;-74
2021/08/28 09:28:01;;;;;;;14.23;11.00;;;;;;;15.67;100.00;100704.91;5054002;28;20726;-74
2021/08/28 09:30:31;;;;;;;17.27;12.10;;;;;;;15.70;100.00;100699.50;5051662;28;20199;-74
2021/08/28 09:32:59;;;;;;;12.10;9.40;;;;;;;15.93;100.00;100705.50;5066091;28;20202;-74
2021/08/28 09:35:28;;;;;;;9.67;7.40;;;;;;;15.80;98.14;100703.44;5057974;28;20205;-74
2021/08/28 09:37:57;;;;;;;9.00;7.33;;;;;;;15.83;99.40;100700.69;5060663;28;20237;-74
2021/08/28 09:40:25;;;;;;;9.43;7.63;;;;;;;15.95;100.00;100703.66;5061213;28;20229;-74
2021/08/28 09:42:56;;;;;;;10.50;8.63;;;;;;;15.97;97.70;100707.06;5059682;28;20210;-74
2021/08/28 09:45:24;;;;;;;11.57;8.57;;;;;;;16.14;99.43;100703.63;5058364;28;20214;-74
2021/08/28 09:47:53;;;;;;;8.63;7.73;;;;;;;16.34;99.44;100708.78;5055161;28;20721;-74
2021/08/28 09:50:32;;;;;;;10.27;8.17;;;;;;;16.39;96.63;100708.53;5059581;28;20206;-74
2021/08/28 09:53:04;;;;;;;9.00;6.97;;;;;;;16.57;97.66;100704.16;5058405;28;20857;-74
2021/08/28 09:55:32;;;;;;;8.73;7.83;;;;;;;16.46;95.88;100710.81;5059791;28;20202;-74
2021/08/28 09:57:58;;;;;;;8.97;7.73;;;;;;;16.55;95.14;100704.25;5067894;28;20234;-74
2021/08/28 10:00:25;;;;;;;9.20;8.27;;;;;;;16.59;93.04;100711.06;5058025;28;20206;-74
2021/08/28 10:02:57;;;;;;;8.90;7.67;;;;;;;16.74;95.26;100698.03;5061750;28;20195;-74
2021/08/28 10:05:25;;;;;;;9.47;8.47;;;;;;;16.73;90.87;100704.25;5067865;28;20686;-74
2021/08/28 10:07:55;;;;;;;9.23;8.27;;;;;;;16.72;87.73;100703.38;5067881;28;20230;-74
2021/08/28 10:10:21;;;;;;;10.03;8.97;;;;;;;16.70;92.29;100697.34;5065526;28;20205;-74
2021/08/28 10:12:48;;;;;;;9.70;8.77;;;;;;;16.83;91.37;100693.22;5061405;28;20209;-74
2021/08/28 10:15:16;;;;;;;10.30;9.07;;;;;;;16.82;87.96;100701.16;5064175;28;20214;-74
2021/08/28 10:17:44;;;;;;;10.80;8.67;;;;;;;16.84;92.32;100688.78;5063580;28;20770;-74
2021/08/28 10:20:13;;;;;;;9.00;8.10;;;;;;;16.81;89.64;100696.81;5057070;28;20209;-74
2021/08/28 10:22:43;;;;;;;8.43;7.43;;;;;;;16.83;87.94;100694.94;5058179;28;20195;-74
2021/08/28 10:25:12;;;;;;;8.70;7.80;;;;;;;16.87;88.53;100700.94;5063309;28;20830;-74
2021/08/28 10:27:41;;;;;;;8.97;7.40;;;;;;;16.75;87.75;100703.22;5061697;28;20579;-74
2021/08/28 10:30:10;;;;;;;8.17;7.37;;;;;;;16.60;87.20;100710.13;5066626;28;20222;-74
2021/08/28 10:32:37;;;;;;;8.07;7.27;;;;;;;16.64;89.92;100701.16;5060524;28;20715;-74
2021/08/28 10:35:04;;;;;;;8.33;7.00;;;;;;;16.81;88.23;100713.44;5066332;28;20296;-74
2021/08/28 10:37:32;;;;;;;8.10;7.30;;;;;;;16.79;89.57;100703.94;5062715;28;20234;-74
2021/08/28 10:39:59;;;;;;;8.10;7.27;;;;;;;16.77;92.30;100704.00;5070128;28;21416;-74
2021/08/28 10:42:30;;;;;;;10.30;8.27;;;;;;;16.56;90.52;100710.34;5055592;28;20199;-74
2021/08/28 10:45:00;;;;;;;9.77;8.00;;;;;;;16.34;92.71;100700.91;5061844;28;20194;-74
2021/08/28 10:47:37;;;;;;;8.47;7.33;;;;;;;16.21;92.17;100708.50;5060323;28;20322;-74
2021/08/28 10:50:12;;;;;;;8.93;8.03;;;;;;;16.14;92.60;100704.47;5067237;28;20583;-74
2021/08/28 10:52:48;;;;;;;10.13;8.77;;;;;;;15.99;92.69;100702.56;5060590;28;21097;-74
2021/08/28 10:55:15;;;;;;;9.57;8.57;;;;;;;15.93;93.32;100702.88;5060157;28;20669;-74
2021/08/28 10:57:42;;;;;;;9.47;8.30;;;;;;;15.85;94.54;100700.63;5063719;28;20308;-74
2021/08/28 11:00:10;;;;;;;9.63;8.37;;;;;;;15.75;94.91;100709.84;5056172;28;20202;-74
2021/08/28 11:02:53;;;;;;;10.60;8.60;;;;;;;15.68;97.29;100696.94;5059446;28;20207;-74
2021/08/28 11:05:21;;;;;;;10.43;9.00;;;;;;;15.55;98.24;100705.47;5063732;28;20229;-74
2021/08/28 11:07:50;;;;;;;9.87;8.83;;;;;;;15.45;98.94;100705.03;5061184;28;20321;-74
2021/08/28 11:10:18;;;;;;;9.33;8.33;;;;;;;15.45;97.34;100705.88;5058152;28;20769;-74
2021/08/28 11:12:57;;;;;;;10.10;8.63;;;;;;;15.46;98.48;100694.47;5063425;28;20679;-74
2021/08/28 11:15:51;;;;;;;9.80;8.80;;;;;;;15.49;99.50;100699.56;5066027;28;20826;-74
2021/08/28 11:18:45;;;;;;;10.47;8.80;;;;;;;15.44;98.37;100701.56;5058357;28;20222;-74
2021/08/28 11:21:13;;;;;;;11.70;8.70;;;;;;;15.42;97.58;100699.91;5060732;28;20226;-74
2021/08/28 11:23:44;;;;;;;10.20;9.00;;;;;;;15.40;99.16;100702.59;5063830;28;20416;-74
2021/08/28 11:26:11;;;;;;;10.70;8.77;;;;;;;15.33;100.00;100701.19;5060374;28;20198;-74
2021/08/28 11:28:41;;;;;;;11.30;8.90;;;;;;;15.26;100.00;100700.59;5064746;28;20275;-74
2021/08/28 11:31:07;;;;;;;9.43;8.43;;;;;;;15.32;100.00;100696.88;5064275;28;20205;-74
2021/08/28 11:33:35;;;;;;;12.33;10.27;;;;;;;15.41;100.00;100695.56;5065280;28;20212;-74
2021/08/28 11:36:05;;;;;;;10.97;9.47;;;;;;;15.48;100.00;100697.03;5064276;28;20224;-74